sensor_id;sensor_type;location;lat;lon;timestamp;P1;durP1;ratioP1;P2;durP2;ratioP2
75649;SDS011;64245;51.282;22.494;2022-12-29T00:02:01;8.05;;;4.13;;
75649;SDS011;64245;51.282;22.494;2022-12-29T00:04:26;8.98;;;4.95;;
75649;SDS011;64245;51.282;22.494;2022-12-29T00:06:52;8.30;;;3.80;;
75649;SDS011;64245;51.282;22.494;2022-12-29T00:09:18;9.82;;;4.95;;
75649;SDS011;64245;51.282;22.494;2022-12-29T00:11:44;5.75;;;3.78;;
75649;SDS011;64245;51.282;22.494;2022-12-29T00:14:10;8.65;;;4.20;;
75649;SDS011;64245;51.282;22.494;2022-12-29T00:16:56;8.15;;;4.50;;
75649;SDS011;64245;51.282;22.494;2022-12-29T00:19:22;11.63;;;4.85;;
75649;SDS011;64245;51.282;22.494;2022-12-29T00:22:08;8.57;;;4.47;;
75649;SDS011;64245;51.282;22.494;2022-12-29T00:24:54;9.25;;;5.00;;
75649;SDS011;64245;51.282;22.494;2022-12-29T00:27:20;12.60;;;4.38;;
75649;SDS011;64245;51.282;22.494;2022-12-29T00:30:15;9.70;;;4.97;;
75649;SDS011;64245;51.282;22.494;2022-12-29T00:33:04;9.60;;;5.00;;
75649;SDS011;64245;51.282;22.494;2022-12-29T00:35:57;10.25;;;4.63;;
75649;SDS011;64245;51.282;22.494;2022-12-29T00:38:30;5.13;;;3.35;;
75649;SDS011;64245;51.282;22.494;2022-12-29T00:41:16;7.63;;;3.33;;
75649;SDS011;64245;51.282;22.494;2022-12-29T00:44:01;8.75;;;4.70;;
75649;SDS011;64245;51.282;22.494;2022-12-29T00:46:33;7.35;;;4.50;;
75649;SDS011;64245;51.282;22.494;2022-12-29T00:48:59;7.40;;;3.83;;
75649;SDS011;64245;51.282;22.494;2022-12-29T00:51:45;10.10;;;5.25;;
75649;SDS011;64245;51.282;22.494;2022-12-29T00:54:11;13.73;;;6.22;;
75649;SDS011;64245;51.282;22.494;2022-12-29T00:56:38;8.48;;;3.85;;
75649;SDS011;64245;51.282;22.494;2022-12-29T00:59:05;5.22;;;3.42;;
75649;SDS011;64245;51.282;22.494;2022-12-29T01:01:33;10.52;;;4.90;;
75649;SDS011;64245;51.282;22.494;2022-12-29T01:04:00;12.18;;;5.75;;
75649;SDS011;64245;51.282;22.494;2022-12-29T01:06:26;7.25;;;3.50;;
75649;SDS011;64245;51.282;22.494;2022-12-29T01:08:52;9.10;;;5.50;;
75649;SDS011;64245;51.282;22.494;2022-12-29T01:11:40;8.30;;;4.70;;
75649;SDS011;64245;51.282;22.494;2022-12-29T01:14:06;9.05;;;4.75;;
75649;SDS011;64245;51.282;22.494;2022-12-29T01:16:32;12.00;;;5.68;;
75649;SDS011;64245;51.282;22.494;2022-12-29T01:18:59;7.38;;;3.30;;
75649;SDS011;64245;51.282;22.494;2022-12-29T01:21:24;10.13;;;5.30;;
75649;SDS011;64245;51.282;22.494;2022-12-29T01:23:50;12.27;;;6.03;;
75649;SDS011;64245;51.282;22.494;2022-12-29T01:26:16;8.77;;;4.47;;
75649;SDS011;64245;51.282;22.494;2022-12-29T01:28:43;11.25;;;5.60;;
75649;SDS011;64245;51.282;22.494;2022-12-29T01:31:10;8.50;;;4.80;;
75649;SDS011;64245;51.282;22.494;2022-12-29T01:33:37;7.95;;;3.72;;
75649;SDS011;64245;51.282;22.494;2022-12-29T01:36:03;9.80;;;5.57;;
75649;SDS011;64245;51.282;22.494;2022-12-29T01:38:31;11.00;;;4.82;;
75649;SDS011;64245;51.282;22.494;2022-12-29T01:40:57;11.50;;;4.80;;
75649;SDS011;64245;51.282;22.494;2022-12-29T01:43:43;11.45;;;4.03;;
75649;SDS011;64245;51.282;22.494;2022-12-29T01:46:22;8.38;;;4.30;;
75649;SDS011;64245;51.282;22.494;2022-12-29T01:48:50;8.68;;;5.15;;
75649;SDS011;64245;51.282;22.494;2022-12-29T01:51:19;7.75;;;4.20;;
75649;SDS011;64245;51.282;22.494;2022-12-29T01:53:48;10.75;;;5.20;;
75649;SDS011;64245;51.282;22.494;2022-12-29T01:56:14;8.05;;;4.68;;
75649;SDS011;64245;51.282;22.494;2022-12-29T01:58:43;7.32;;;4.40;;
75649;SDS011;64245;51.282;22.494;2022-12-29T02:01:11;7.18;;;4.30;;
75649;SDS011;64245;51.282;22.494;2022-12-29T02:03:37;9.60;;;5.22;;
75649;SDS011;64245;51.282;22.494;2022-12-29T02:06:22;10.43;;;4.50;;
75649;SDS011;64245;51.282;22.494;2022-12-29T02:08:53;9.70;;;4.28;;
75649;SDS011;64245;51.282;22.494;2022-12-29T02:11:21;9.63;;;4.30;;
75649;SDS011;64245;51.282;22.494;2022-12-29T02:13:52;6.82;;;4.15;;
75649;SDS011;64245;51.282;22.494;2022-12-29T02:16:33;7.45;;;4.95;;
75649;SDS011;64245;51.282;22.494;2022-12-29T02:25:16;9.07;;;4.63;;
75649;SDS011;64245;51.282;22.494;2022-12-29T02:33:59;9.70;;;5.10;;
75649;SDS011;64245;51.282;22.494;2022-12-29T02:36:45;6.88;;;3.35;;
75649;SDS011;64245;51.282;22.494;2022-12-29T02:39:24;8.63;;;4.40;;
75649;SDS011;64245;51.282;22.494;2022-12-29T02:44:59;8.93;;;4.32;;
75649;SDS011;64245;51.282;22.494;2022-12-29T02:47:39;10.55;;;4.63;;
75649;SDS011;64245;51.282;22.494;2022-12-29T02:50:30;7.18;;;3.20;;
75649;SDS011;64245;51.282;22.494;2022-12-29T02:53:01;5.90;;;3.63;;
75649;SDS011;64245;51.282;22.494;2022-12-29T02:55:30;7.43;;;3.85;;
75649;SDS011;64245;51.282;22.494;2022-12-29T03:00:33;8.57;;;4.75;;
75649;SDS011;64245;51.282;22.494;2022-12-29T03:11:02;8.50;;;4.72;;
75649;SDS011;64245;51.282;22.494;2022-12-29T03:16:40;5.05;;;2.85;;
75649;SDS011;64245;51.282;22.494;2022-12-29T03:19:15;8.18;;;4.03;;
75649;SDS011;64245;51.282;22.494;2022-12-29T03:21:59;10.75;;;4.95;;
75649;SDS011;64245;51.282;22.494;2022-12-29T03:24:47;9.27;;;4.85;;
75649;SDS011;64245;51.282;22.494;2022-12-29T03:27:19;8.60;;;5.20;;
75649;SDS011;64245;51.282;22.494;2022-12-29T03:29:50;7.55;;;4.13;;
75649;SDS011;64245;51.282;22.494;2022-12-29T03:32:23;9.27;;;4.60;;
75649;SDS011;64245;51.282;22.494;2022-12-29T03:34:54;7.45;;;4.53;;
75649;SDS011;64245;51.282;22.494;2022-12-29T03:37:21;8.35;;;4.40;;
75649;SDS011;64245;51.282;22.494;2022-12-29T03:39:49;7.35;;;4.15;;
75649;SDS011;64245;51.282;22.494;2022-12-29T03:42:16;10.43;;;5.03;;
75649;SDS011;64245;51.282;22.494;2022-12-29T03:44:45;6.35;;;4.00;;
75649;SDS011;64245;51.282;22.494;2022-12-29T03:47:11;8.38;;;4.88;;
75649;SDS011;64245;51.282;22.494;2022-12-29T03:49:39;7.07;;;3.72;;
75649;SDS011;64245;51.282;22.494;2022-12-29T03:52:04;8.90;;;5.40;;
75649;SDS011;64245;51.282;22.494;2022-12-29T03:54:31;9.07;;;5.30;;
75649;SDS011;64245;51.282;22.494;2022-12-29T03:56:56;8.18;;;4.60;;
75649;SDS011;64245;51.282;22.494;2022-12-29T03:59:22;9.57;;;4.78;;
75649;SDS011;64245;51.282;22.494;2022-12-29T04:01:48;9.75;;;5.00;;
75649;SDS011;64245;51.282;22.494;2022-12-29T04:04:13;5.97;;;3.85;;
75649;SDS011;64245;51.282;22.494;2022-12-29T04:06:39;6.35;;;3.65;;
75649;SDS011;64245;51.282;22.494;2022-12-29T04:09:05;8.73;;;4.80;;
75649;SDS011;64245;51.282;22.494;2022-12-29T04:11:31;4.78;;;3.05;;
75649;SDS011;64245;51.282;22.494;2022-12-29T04:13:57;5.70;;;2.90;;
75649;SDS011;64245;51.282;22.494;2022-12-29T04:16:23;4.72;;;3.05;;
75649;SDS011;64245;51.282;22.494;2022-12-29T04:18:48;7.38;;;4.70;;
75649;SDS011;64245;51.282;22.494;2022-12-29T04:21:14;8.70;;;4.60;;
75649;SDS011;64245;51.282;22.494;2022-12-29T04:23:40;6.53;;;4.20;;
75649;SDS011;64245;51.282;22.494;2022-12-29T04:26:06;10.07;;;3.67;;
75649;SDS011;64245;51.282;22.494;2022-12-29T04:28:34;5.43;;;3.22;;
75649;SDS011;64245;51.282;22.494;2022-12-29T04:31:01;10.55;;;4.75;;
75649;SDS011;64245;51.282;22.494;2022-12-29T04:33:28;6.15;;;4.07;;
75649;SDS011;64245;51.282;22.494;2022-12-29T04:35:53;9.88;;;4.35;;
75649;SDS011;64245;51.282;22.494;2022-12-29T04:38:20;7.57;;;5.13;;
75649;SDS011;64245;51.282;22.494;2022-12-29T04:40:46;10.63;;;4.15;;
75649;SDS011;64245;51.282;22.494;2022-12-29T04:43:12;9.20;;;4.28;;
75649;SDS011;64245;51.282;22.494;2022-12-29T04:45:42;6.78;;;3.97;;
75649;SDS011;64245;51.282;22.494;2022-12-29T04:48:08;6.68;;;4.13;;
75649;SDS011;64245;51.282;22.494;2022-12-29T04:50:34;7.40;;;4.10;;
75649;SDS011;64245;51.282;22.494;2022-12-29T04:53:00;8.80;;;3.95;;
75649;SDS011;64245;51.282;22.494;2022-12-29T04:55:25;5.65;;;2.78;;
75649;SDS011;64245;51.282;22.494;2022-12-29T04:57:51;7.80;;;4.38;;
75649;SDS011;64245;51.282;22.494;2022-12-29T05:00:17;6.75;;;3.97;;
75649;SDS011;64245;51.282;22.494;2022-12-29T05:02:43;4.78;;;2.53;;
75649;SDS011;64245;51.282;22.494;2022-12-29T05:05:09;5.55;;;3.58;;
75649;SDS011;64245;51.282;22.494;2022-12-29T05:07:35;6.72;;;4.03;;
75649;SDS011;64245;51.282;22.494;2022-12-29T05:10:00;7.93;;;4.13;;
75649;SDS011;64245;51.282;22.494;2022-12-29T05:12:29;7.80;;;4.60;;
75649;SDS011;64245;51.282;22.494;2022-12-29T05:14:56;6.15;;;3.92;;
75649;SDS011;64245;51.282;22.494;2022-12-29T05:20:40;7.55;;;3.83;;
75649;SDS011;64245;51.282;22.494;2022-12-29T05:23:06;9.23;;;4.03;;
75649;SDS011;64245;51.282;22.494;2022-12-29T05:25:31;7.63;;;4.45;;
75649;SDS011;64245;51.282;22.494;2022-12-29T05:27:57;3.55;;;2.30;;
75649;SDS011;64245;51.282;22.494;2022-12-29T05:30:23;6.13;;;3.30;;
75649;SDS011;64245;51.282;22.494;2022-12-29T05:32:49;10.60;;;4.95;;
75649;SDS011;64245;51.282;22.494;2022-12-29T05:35:14;9.23;;;3.80;;
75649;SDS011;64245;51.282;22.494;2022-12-29T05:37:40;6.50;;;3.30;;
75649;SDS011;64245;51.282;22.494;2022-12-29T05:40:06;5.85;;;2.40;;
75649;SDS011;64245;51.282;22.494;2022-12-29T05:42:32;6.35;;;3.45;;
75649;SDS011;64245;51.282;22.494;2022-12-29T05:44:58;6.55;;;3.95;;
75649;SDS011;64245;51.282;22.494;2022-12-29T05:47:24;6.85;;;3.50;;
75649;SDS011;64245;51.282;22.494;2022-12-29T05:49:49;11.38;;;5.60;;
75649;SDS011;64245;51.282;22.494;2022-12-29T05:55:12;8.18;;;4.25;;
75649;SDS011;64245;51.282;22.494;2022-12-29T05:57:37;5.57;;;3.03;;
75649;SDS011;64245;51.282;22.494;2022-12-29T06:00:04;6.30;;;2.65;;
75649;SDS011;64245;51.282;22.494;2022-12-29T06:02:30;7.47;;;4.13;;
75649;SDS011;64245;51.282;22.494;2022-12-29T06:04:56;5.78;;;3.30;;
75649;SDS011;64245;51.282;22.494;2022-12-29T06:07:22;4.68;;;3.47;;
75649;SDS011;64245;51.282;22.494;2022-12-29T06:09:48;8.73;;;4.10;;
75649;SDS011;64245;51.282;22.494;2022-12-29T06:12:13;5.90;;;2.47;;
75649;SDS011;64245;51.282;22.494;2022-12-29T06:14:39;7.45;;;3.58;;
75649;SDS011;64245;51.282;22.494;2022-12-29T06:17:05;5.95;;;3.13;;
75649;SDS011;64245;51.282;22.494;2022-12-29T06:19:31;7.32;;;4.43;;
75649;SDS011;64245;51.282;22.494;2022-12-29T06:21:57;7.57;;;3.40;;
75649;SDS011;64245;51.282;22.494;2022-12-29T06:24:23;7.68;;;3.65;;
75649;SDS011;64245;51.282;22.494;2022-12-29T06:26:49;5.80;;;3.15;;
75649;SDS011;64245;51.282;22.494;2022-12-29T06:29:15;7.53;;;3.40;;
75649;SDS011;64245;51.282;22.494;2022-12-29T06:31:42;5.70;;;3.15;;
75649;SDS011;64245;51.282;22.494;2022-12-29T06:34:14;2.47;;;2.28;;
75649;SDS011;64245;51.282;22.494;2022-12-29T06:36:40;4.38;;;2.90;;
75649;SDS011;64245;51.282;22.494;2022-12-29T06:39:06;4.88;;;2.67;;
75649;SDS011;64245;51.282;22.494;2022-12-29T06:41:31;6.30;;;3.13;;
75649;SDS011;64245;51.282;22.494;2022-12-29T06:43:57;5.32;;;2.13;;
75649;SDS011;64245;51.282;22.494;2022-12-29T06:46:23;7.05;;;2.85;;
75649;SDS011;64245;51.282;22.494;2022-12-29T06:48:49;6.18;;;2.47;;
75649;SDS011;64245;51.282;22.494;2022-12-29T06:51:15;3.65;;;2.53;;
75649;SDS011;64245;51.282;22.494;2022-12-29T06:53:41;4.60;;;2.38;;
75649;SDS011;64245;51.282;22.494;2022-12-29T06:56:06;6.40;;;3.25;;
75649;SDS011;64245;51.282;22.494;2022-12-29T06:58:32;5.20;;;2.47;;
75649;SDS011;64245;51.282;22.494;2022-12-29T07:00:58;4.55;;;2.25;;
75649;SDS011;64245;51.282;22.494;2022-12-29T07:03:24;3.47;;;1.60;;
75649;SDS011;64245;51.282;22.494;2022-12-29T07:05:50;5.00;;;2.42;;
75649;SDS011;64245;51.282;22.494;2022-12-29T07:08:16;8.48;;;3.63;;
75649;SDS011;64245;51.282;22.494;2022-12-29T07:10:42;10.13;;;4.13;;
75649;SDS011;64245;51.282;22.494;2022-12-29T07:13:08;4.97;;;2.50;;
75649;SDS011;64245;51.282;22.494;2022-12-29T07:15:34;7.85;;;2.55;;
75649;SDS011;64245;51.282;22.494;2022-12-29T07:18:01;5.00;;;2.72;;
75649;SDS011;64245;51.282;22.494;2022-12-29T07:20:28;6.35;;;2.42;;
75649;SDS011;64245;51.282;22.494;2022-12-29T07:22:54;5.90;;;2.75;;
75649;SDS011;64245;51.282;22.494;2022-12-29T07:25:19;3.97;;;2.13;;
75649;SDS011;64245;51.282;22.494;2022-12-29T07:27:45;4.93;;;2.00;;
75649;SDS011;64245;51.282;22.494;2022-12-29T07:30:11;3.80;;;2.33;;
75649;SDS011;64245;51.282;22.494;2022-12-29T07:32:37;5.13;;;2.83;;
75649;SDS011;64245;51.282;22.494;2022-12-29T07:35:03;5.47;;;3.22;;
75649;SDS011;64245;51.282;22.494;2022-12-29T07:37:29;7.18;;;3.17;;
75649;SDS011;64245;51.282;22.494;2022-12-29T07:39:55;6.45;;;2.97;;
75649;SDS011;64245;51.282;22.494;2022-12-29T07:42:21;5.95;;;2.88;;
75649;SDS011;64245;51.282;22.494;2022-12-29T07:44:46;6.80;;;2.70;;
75649;SDS011;64245;51.282;22.494;2022-12-29T07:47:12;4.25;;;1.98;;
75649;SDS011;64245;51.282;22.494;2022-12-29T07:49:38;5.18;;;2.65;;
75649;SDS011;64245;51.282;22.494;2022-12-29T07:52:04;3.42;;;1.92;;
75649;SDS011;64245;51.282;22.494;2022-12-29T07:54:29;5.22;;;2.47;;
75649;SDS011;64245;51.282;22.494;2022-12-29T07:56:55;5.68;;;3.00;;
75649;SDS011;64245;51.282;22.494;2022-12-29T07:59:22;3.70;;;2.22;;
75649;SDS011;64245;51.282;22.494;2022-12-29T08:01:48;5.38;;;2.40;;
75649;SDS011;64245;51.282;22.494;2022-12-29T08:04:14;2.50;;;1.73;;
75649;SDS011;64245;51.282;22.494;2022-12-29T08:06:40;4.40;;;2.10;;
75649;SDS011;64245;51.282;22.494;2022-12-29T08:09:05;6.00;;;3.20;;
75649;SDS011;64245;51.282;22.494;2022-12-29T08:11:31;5.65;;;2.83;;
75649;SDS011;64245;51.282;22.494;2022-12-29T08:13:57;5.13;;;2.05;;
75649;SDS011;64245;51.282;22.494;2022-12-29T08:16:23;6.43;;;2.50;;
75649;SDS011;64245;51.282;22.494;2022-12-29T08:18:49;7.18;;;3.50;;
75649;SDS011;64245;51.282;22.494;2022-12-29T08:21:15;3.65;;;2.38;;
75649;SDS011;64245;51.282;22.494;2022-12-29T08:23:40;5.55;;;3.00;;
75649;SDS011;64245;51.282;22.494;2022-12-29T08:26:06;7.15;;;3.15;;
75649;SDS011;64245;51.282;22.494;2022-12-29T08:28:32;4.03;;;2.28;;
75649;SDS011;64245;51.282;22.494;2022-12-29T08:30:58;3.13;;;1.92;;
75649;SDS011;64245;51.282;22.494;2022-12-29T08:33:25;6.75;;;3.28;;
75649;SDS011;64245;51.282;22.494;2022-12-29T08:35:52;4.75;;;2.63;;
75649;SDS011;64245;51.282;22.494;2022-12-29T08:38:23;6.32;;;2.85;;
75649;SDS011;64245;51.282;22.494;2022-12-29T08:40:50;5.00;;;2.33;;
75649;SDS011;64245;51.282;22.494;2022-12-29T08:43:16;6.47;;;2.70;;
75649;SDS011;64245;51.282;22.494;2022-12-29T08:45:42;3.00;;;2.05;;
75649;SDS011;64245;51.282;22.494;2022-12-29T08:48:07;6.32;;;2.92;;
75649;SDS011;64245;51.282;22.494;2022-12-29T08:50:33;6.32;;;3.20;;
75649;SDS011;64245;51.282;22.494;2022-12-29T08:52:59;6.53;;;3.38;;
75649;SDS011;64245;51.282;22.494;2022-12-29T08:55:25;7.07;;;3.60;;
75649;SDS011;64245;51.282;22.494;2022-12-29T08:57:50;5.40;;;3.08;;
75649;SDS011;64245;51.282;22.494;2022-12-29T09:00:17;8.63;;;3.47;;
75649;SDS011;64245;51.282;22.494;2022-12-29T09:02:43;6.60;;;2.95;;
75649;SDS011;64245;51.282;22.494;2022-12-29T09:05:09;6.75;;;3.03;;
75649;SDS011;64245;51.282;22.494;2022-12-29T09:07:35;10.07;;;2.83;;
75649;SDS011;64245;51.282;22.494;2022-12-29T09:10:01;3.70;;;2.10;;
75649;SDS011;64245;51.282;22.494;2022-12-29T09:12:26;5.15;;;2.95;;
75649;SDS011;64245;51.282;22.494;2022-12-29T09:14:52;3.92;;;2.28;;
75649;SDS011;64245;51.282;22.494;2022-12-29T09:17:18;7.18;;;3.05;;
75649;SDS011;64245;51.282;22.494;2022-12-29T09:20:02;6.53;;;3.15;;
75649;SDS011;64245;51.282;22.494;2022-12-29T09:22:28;6.60;;;3.13;;
75649;SDS011;64245;51.282;22.494;2022-12-29T09:24:54;2.58;;;1.90;;
75649;SDS011;64245;51.282;22.494;2022-12-29T09:27:20;8.15;;;3.63;;
75649;SDS011;64245;51.282;22.494;2022-12-29T09:29:45;6.93;;;3.55;;
75649;SDS011;64245;51.282;22.494;2022-12-29T09:32:11;6.53;;;2.58;;
75649;SDS011;64245;51.282;22.494;2022-12-29T09:34:37;6.30;;;3.20;;
75649;SDS011;64245;51.282;22.494;2022-12-29T09:37:02;3.20;;;1.73;;
75649;SDS011;64245;51.282;22.494;2022-12-29T09:39:28;6.63;;;2.90;;
75649;SDS011;64245;51.282;22.494;2022-12-29T09:47:21;4.82;;;2.63;;
75649;SDS011;64245;51.282;22.494;2022-12-29T09:52:43;4.82;;;2.95;;
75649;SDS011;64245;51.282;22.494;2022-12-29T09:55:16;7.10;;;2.17;;
75649;SDS011;64245;51.282;22.494;2022-12-29T10:00:36;5.75;;;3.03;;
75649;SDS011;64245;51.282;22.494;2022-12-29T10:03:16;8.00;;;3.50;;
75649;SDS011;64245;51.282;22.494;2022-12-29T10:16:26;8.82;;;2.90;;
75649;SDS011;64245;51.282;22.494;2022-12-29T10:21:43;7.05;;;3.47;;
75649;SDS011;64245;51.282;22.494;2022-12-29T10:24:21;8.55;;;3.95;;
75649;SDS011;64245;51.282;22.494;2022-12-29T10:26:48;5.90;;;3.92;;
75649;SDS011;64245;51.282;22.494;2022-12-29T10:31:58;4.72;;;2.40;;
75649;SDS011;64245;51.282;22.494;2022-12-29T10:34:31;5.43;;;2.95;;
75649;SDS011;64245;51.282;22.494;2022-12-29T10:37:11;4.75;;;3.03;;
75649;SDS011;64245;51.282;22.494;2022-12-29T10:39:53;6.13;;;2.92;;
75649;SDS011;64245;51.282;22.494;2022-12-29T10:45:21;5.25;;;2.67;;
75649;SDS011;64245;51.282;22.494;2022-12-29T10:47:52;4.85;;;3.03;;
75649;SDS011;64245;51.282;22.494;2022-12-29T10:50:23;6.50;;;3.22;;
75649;SDS011;64245;51.282;22.494;2022-12-29T10:52:50;5.30;;;3.40;;
75649;SDS011;64245;51.282;22.494;2022-12-29T10:55:19;8.05;;;2.72;;
75649;SDS011;64245;51.282;22.494;2022-12-29T10:57:50;4.63;;;2.50;;
75649;SDS011;64245;51.282;22.494;2022-12-29T11:00:16;7.45;;;4.03;;
75649;SDS011;64245;51.282;22.494;2022-12-29T11:05:34;8.00;;;3.50;;
75649;SDS011;64245;51.282;22.494;2022-12-29T11:08:10;9.63;;;4.30;;
75649;SDS011;64245;51.282;22.494;2022-12-29T11:10:40;11.68;;;4.78;;
75649;SDS011;64245;51.282;22.494;2022-12-29T11:14:10;7.07;;;3.70;;
75649;SDS011;64245;51.282;22.494;2022-12-29T11:16:13;8.20;;;3.85;;
75649;SDS011;64245;51.282;22.494;2022-12-29T11:18:39;6.60;;;2.95;;
75649;SDS011;64245;51.282;22.494;2022-12-29T11:24:00;7.72;;;4.38;;
75649;SDS011;64245;51.282;22.494;2022-12-29T11:26:28;5.43;;;3.63;;
75649;SDS011;64245;51.282;22.494;2022-12-29T11:29:20;4.75;;;3.03;;
75649;SDS011;64245;51.282;22.494;2022-12-29T11:31:57;4.80;;;3.22;;
75649;SDS011;64245;51.282;22.494;2022-12-29T11:34:25;5.45;;;3.33;;
75649;SDS011;64245;51.282;22.494;2022-12-29T11:37:02;5.57;;;3.30;;
75649;SDS011;64245;51.282;22.494;2022-12-29T11:39:33;8.80;;;2.97;;
75649;SDS011;64245;51.282;22.494;2022-12-29T11:42:03;7.72;;;3.90;;
75649;SDS011;64245;51.282;22.494;2022-12-29T11:44:41;3.92;;;2.40;;
75649;SDS011;64245;51.282;22.494;2022-12-29T11:47:10;7.43;;;3.60;;
75649;SDS011;64245;51.282;22.494;2022-12-29T11:49:48;6.13;;;3.65;;
75649;SDS011;64245;51.282;22.494;2022-12-29T11:52:16;8.10;;;3.90;;
75649;SDS011;64245;51.282;22.494;2022-12-29T11:54:46;8.10;;;3.85;;
75649;SDS011;64245;51.282;22.494;2022-12-29T11:57:12;6.30;;;3.83;;
75649;SDS011;64245;51.282;22.494;2022-12-29T11:59:43;7.82;;;3.50;;
75649;SDS011;64245;51.282;22.494;2022-12-29T12:05:06;7.18;;;3.20;;
75649;SDS011;64245;51.282;22.494;2022-12-29T12:07:44;8.27;;;4.22;;
75649;SDS011;64245;51.282;22.494;2022-12-29T12:10:20;7.28;;;3.92;;
75649;SDS011;64245;51.282;22.494;2022-12-29T12:21:32;7.95;;;4.25;;
75649;SDS011;64245;51.282;22.494;2022-12-29T12:30:22;7.00;;;3.78;;
75649;SDS011;64245;51.282;22.494;2022-12-29T12:38:24;6.70;;;3.97;;
75649;SDS011;64245;51.282;22.494;2022-12-29T12:41:06;9.63;;;4.28;;
75649;SDS011;64245;51.282;22.494;2022-12-29T12:44:00;8.55;;;4.15;;
75649;SDS011;64245;51.282;22.494;2022-12-29T13:00:25;8.80;;;3.90;;
75649;SDS011;64245;51.282;22.494;2022-12-29T13:08:25;12.05;;;5.20;;
75649;SDS011;64245;51.282;22.494;2022-12-29T13:19:34;8.85;;;4.95;;
75649;SDS011;64245;51.282;22.494;2022-12-29T13:27:53;10.02;;;4.55;;
75649;SDS011;64245;51.282;22.494;2022-12-29T13:38:23;8.32;;;3.97;;
75649;SDS011;64245;51.282;22.494;2022-12-29T13:40:56;8.82;;;4.22;;
75649;SDS011;64245;51.282;22.494;2022-12-29T13:43:26;11.65;;;5.10;;
75649;SDS011;64245;51.282;22.494;2022-12-29T13:46:07;10.93;;;5.32;;
75649;SDS011;64245;51.282;22.494;2022-12-29T13:48:39;9.65;;;4.57;;
75649;SDS011;64245;51.282;22.494;2022-12-29T13:51:11;10.60;;;4.38;;
75649;SDS011;64245;51.282;22.494;2022-12-29T13:56:38;13.27;;;5.53;;
75649;SDS011;64245;51.282;22.494;2022-12-29T14:01:43;12.43;;;4.80;;
75649;SDS011;64245;51.282;22.494;2022-12-29T14:04:22;11.25;;;5.43;;
75649;SDS011;64245;51.282;22.494;2022-12-29T14:07:35;13.65;;;6.30;;
75649;SDS011;64245;51.282;22.494;2022-12-29T14:09:47;12.10;;;5.47;;
75649;SDS011;64245;51.282;22.494;2022-12-29T14:14:50;12.25;;;5.93;;
75649;SDS011;64245;51.282;22.494;2022-12-29T14:17:18;10.32;;;5.45;;
75649;SDS011;64245;51.282;22.494;2022-12-29T14:19:46;8.25;;;4.60;;
75649;SDS011;64245;51.282;22.494;2022-12-29T14:22:24;10.98;;;5.28;;
75649;SDS011;64245;51.282;22.494;2022-12-29T14:24:52;7.35;;;3.67;;
75649;SDS011;64245;51.282;22.494;2022-12-29T14:29:47;8.80;;;4.28;;
75649;SDS011;64245;51.282;22.494;2022-12-29T14:34:47;7.68;;;3.90;;
75649;SDS011;64245;51.282;22.494;2022-12-29T14:37:47;8.13;;;4.28;;
75649;SDS011;64245;51.282;22.494;2022-12-29T14:40:13;8.10;;;3.80;;
75649;SDS011;64245;51.282;22.494;2022-12-29T14:42:39;7.55;;;3.65;;
75649;SDS011;64245;51.282;22.494;2022-12-29T14:47:39;8.88;;;4.25;;
75649;SDS011;64245;51.282;22.494;2022-12-29T14:50:23;7.97;;;3.58;;
75649;SDS011;64245;51.282;22.494;2022-12-29T14:58:12;8.15;;;4.30;;
75649;SDS011;64245;51.282;22.494;2022-12-29T15:00:43;9.98;;;4.78;;
75649;SDS011;64245;51.282;22.494;2022-12-29T15:03:13;8.93;;;4.68;;
75649;SDS011;64245;51.282;22.494;2022-12-29T15:05:55;11.00;;;5.47;;
75649;SDS011;64245;51.282;22.494;2022-12-29T15:08:26;13.40;;;6.20;;
75649;SDS011;64245;51.282;22.494;2022-12-29T15:11:12;11.65;;;5.95;;
75649;SDS011;64245;51.282;22.494;2022-12-29T15:13:42;16.38;;;6.55;;
75649;SDS011;64245;51.282;22.494;2022-12-29T15:16:23;15.07;;;7.10;;
75649;SDS011;64245;51.282;22.494;2022-12-29T15:18:52;16.38;;;5.80;;
75649;SDS011;64245;51.282;22.494;2022-12-29T15:21:26;10.60;;;5.15;;
75649;SDS011;64245;51.282;22.494;2022-12-29T15:23:54;13.43;;;5.22;;
75649;SDS011;64245;51.282;22.494;2022-12-29T15:26:20;9.23;;;4.35;;
75649;SDS011;64245;51.282;22.494;2022-12-29T15:28:51;8.57;;;4.68;;
75649;SDS011;64245;51.282;22.494;2022-12-29T15:31:21;13.55;;;6.38;;
75649;SDS011;64245;51.282;22.494;2022-12-29T15:33:49;11.50;;;5.72;;
75649;SDS011;64245;51.282;22.494;2022-12-29T15:36:18;11.02;;;5.10;;
75649;SDS011;64245;51.282;22.494;2022-12-29T15:38:44;10.10;;;4.65;;
75649;SDS011;64245;51.282;22.494;2022-12-29T15:44:59;13.25;;;6.43;;
75649;SDS011;64245;51.282;22.494;2022-12-29T15:49:53;10.02;;;5.97;;
75649;SDS011;64245;51.282;22.494;2022-12-29T15:52:24;12.70;;;5.85;;
75649;SDS011;64245;51.282;22.494;2022-12-29T15:54:57;9.32;;;4.95;;
75649;SDS011;64245;51.282;22.494;2022-12-29T15:57:25;10.68;;;5.82;;
75649;SDS011;64245;51.282;22.494;2022-12-29T15:59:52;13.70;;;5.60;;
75649;SDS011;64245;51.282;22.494;2022-12-29T16:02:20;10.18;;;5.07;;
75649;SDS011;64245;51.282;22.494;2022-12-29T16:04:49;11.98;;;5.80;;
75649;SDS011;64245;51.282;22.494;2022-12-29T16:07:23;16.35;;;7.07;;
75649;SDS011;64245;51.282;22.494;2022-12-29T16:09:56;17.17;;;7.78;;
75649;SDS011;64245;51.282;22.494;2022-12-29T16:12:25;12.77;;;6.13;;
75649;SDS011;64245;51.282;22.494;2022-12-29T16:14:58;10.75;;;5.30;;
75649;SDS011;64245;51.282;22.494;2022-12-29T16:17:46;14.38;;;5.85;;
75649;SDS011;64245;51.282;22.494;2022-12-29T16:20:17;14.90;;;7.03;;
75649;SDS011;64245;51.282;22.494;2022-12-29T16:22:48;13.70;;;5.95;;
75649;SDS011;64245;51.282;22.494;2022-12-29T16:31:16;6.57;;;3.55;;
75649;SDS011;64245;51.282;22.494;2022-12-29T16:33:45;12.75;;;5.85;;
75649;SDS011;64245;51.282;22.494;2022-12-29T16:36:33;8.50;;;5.00;;
75649;SDS011;64245;51.282;22.494;2022-12-29T16:39:47;8.32;;;4.28;;
75649;SDS011;64245;51.282;22.494;2022-12-29T16:41:55;11.18;;;5.40;;
75649;SDS011;64245;51.282;22.494;2022-12-29T16:44:31;13.90;;;6.05;;
75649;SDS011;64245;51.282;22.494;2022-12-29T16:49:25;9.90;;;4.68;;
75649;SDS011;64245;51.282;22.494;2022-12-29T16:51:52;15.13;;;5.93;;
75649;SDS011;64245;51.282;22.494;2022-12-29T16:54:21;11.60;;;5.45;;
75649;SDS011;64245;51.282;22.494;2022-12-29T16:56:49;11.57;;;6.30;;
75649;SDS011;64245;51.282;22.494;2022-12-29T16:59:27;11.63;;;6.40;;
75649;SDS011;64245;51.282;22.494;2022-12-29T17:01:58;12.32;;;6.40;;
75649;SDS011;64245;51.282;22.494;2022-12-29T17:04:28;11.35;;;5.78;;
75649;SDS011;64245;51.282;22.494;2022-12-29T17:06:55;14.18;;;6.40;;
75649;SDS011;64245;51.282;22.494;2022-12-29T17:09:22;12.50;;;6.70;;
75649;SDS011;64245;51.282;22.494;2022-12-29T17:11:53;10.48;;;5.57;;
75649;SDS011;64245;51.282;22.494;2022-12-29T17:14:23;12.15;;;5.78;;
75649;SDS011;64245;51.282;22.494;2022-12-29T17:17:04;11.20;;;5.45;;
75649;SDS011;64245;51.282;22.494;2022-12-29T17:19:36;12.77;;;5.85;;
75649;SDS011;64245;51.282;22.494;2022-12-29T17:22:08;16.77;;;7.90;;
75649;SDS011;64245;51.282;22.494;2022-12-29T17:24:37;12.70;;;5.70;;
75649;SDS011;64245;51.282;22.494;2022-12-29T17:27:02;10.27;;;5.40;;
75649;SDS011;64245;51.282;22.494;2022-12-29T17:29:30;8.43;;;5.07;;
75649;SDS011;64245;51.282;22.494;2022-12-29T17:31:59;12.88;;;5.75;;
75649;SDS011;64245;51.282;22.494;2022-12-29T17:34:26;15.45;;;6.30;;
75649;SDS011;64245;51.282;22.494;2022-12-29T17:36:52;13.45;;;6.07;;
75649;SDS011;64245;51.282;22.494;2022-12-29T17:39:17;13.88;;;6.10;;